Time;durP1;ratioP1;P1;durP2;ratioP2;P2;SDS_P1;SDS_P2;PMS_P1;PMS_P2;Temp;Humidity;BMP_temperature;BMP_pressure;BME280_temperature;BME280_humidity;BME280_pressure;Samples;Min_cycle;Max_cycle;Signal;HPM_P1;HPM_P2
2021/12/25 00:01:04;;;;;;;20.15;12.63;;;8.30;99.90;;;;;;5012716;28;20026;-66
2021/12/25 00:03:30;;;;;;;19.23;13.45;;;8.30;99.90;;;;;;5014858;28;20022;-66
2021/12/25 00:05:56;;;;;;;17.92;12.23;;;8.30;99.90;;;;;;5014128;28;20028;-68
2021/12/25 00:08:27;;;;;;;17.00;13.18;;;8.20;99.90;;;;;;5013502;28;20021;-63
2021/12/25 00:10:53;;;;;;;17.38;11.95;;;8.30;99.90;;;;;;5014100;28;20026;-69
2021/12/25 00:13:19;;;;;;;18.67;12.23;;;8.20;99.90;;;;;;5013628;28;20049;-64
2021/12/25 00:15:49;;;;;;;15.95;11.98;;;8.30;99.90;;;;;;5013757;28;20022;-68
2021/12/25 00:18:16;;;;;;;16.60;11.50;;;8.30;99.90;;;;;;5012414;28;20128;-65
2021/12/25 00:20:41;;;;;;;17.48;11.88;;;8.20;99.90;;;;;;5014131;28;20024;-63
2021/12/25 00:23:08;;;;;;;14.95;10.82;;;8.20;99.90;;;;;;5013431;28;20100;-62
2021/12/25 00:25:39;;;;;;;17.58;11.98;;;8.30;99.90;;;;;;5012490;28;20021;-64
2021/12/25 00:30:46;;;;;;;19.05;12.52;;;8.30;99.90;;;;;;5014246;28;20077;-64
2021/12/25 00:33:33;;;;;;;16.60;11.88;;;8.20;99.90;;;;;;5012170;28;20112;-65
2021/12/25 00:35:59;;;;;;;18.10;12.23;;;8.20;99.90;;;;;;5013962;28;20116;-66
2021/12/25 00:38:25;;;;;;;18.85;12.40;;;8.20;99.90;;;;;;5013269;28;20152;-64
2021/12/25 00:40:50;;;;;;;17.77;11.75;;;8.20;99.90;;;;;;5013374;28;20391;-66
2021/12/25 00:43:16;;;;;;;16.45;11.48;;;8.20;99.90;;;;;;5013363;28;20026;-64
2021/12/25 00:45:41;;;;;;;21.92;12.18;;;8.20;99.90;;;;;;5013536;28;20018;-64
2021/12/25 00:48:07;;;;;;;15.90;11.98;;;8.20;99.90;;;;;;5013225;28;20399;-66
2021/12/25 00:50:33;;;;;;;17.67;12.23;;;8.20;99.90;;;;;;5013697;28;20018;-64
2021/12/25 00:52:59;;;;;;;18.27;12.77;;;8.20;99.90;;;;;;5012461;28;20033;-64
2021/12/25 00:55:25;;;;;;;17.70;12.27;;;8.20;99.90;;;;;;5011477;28;20375;-64
2021/12/25 00:57:51;;;;;;;16.67;12.30;;;8.30;99.90;;;;;;5013645;28;20044;-65
2021/12/25 01:00:18;;;;;;;19.02;13.20;;;8.30;99.90;;;;;;5013108;28;20022;-65
2021/12/25 01:02:46;;;;;;;18.50;13.23;;;8.30;99.90;;;;;;5014285;28;20367;-64
2021/12/25 01:05:14;;;;;;;14.65;11.43;;;8.30;99.90;;;;;;5012037;28;20022;-64
2021/12/25 01:07:40;;;;;;;14.95;11.10;;;8.30;99.90;;;;;;5013500;28;20030;-66
2021/12/25 01:10:09;;;;;;;16.13;11.75;;;8.30;99.90;;;;;;5012064;28;20029;-64
2021/12/25 01:12:52;;;;;;;17.50;12.23;;;8.30;99.90;;;;;;5010868;28;20025;-65
2021/12/25 01:15:24;;;;;;;16.67;12.30;;;8.30;99.90;;;;;;5013533;28;20418;-71
2021/12/25 01:21:06;;;;;;;14.00;10.63;;;8.40;99.90;;;;;;5012890;28;19905;-63
2021/12/25 01:26:05;;;;;;;14.50;10.75;;;8.50;99.90;;;;;;5013577;28;20030;-69
2021/12/25 01:34:23;;;;;;;15.52;10.75;;;8.20;99.90;;;;;;5012829;28;20057;-64
2021/12/25 01:49:35;;;;;;;16.77;11.20;;;8.20;99.90;;;;;;5012257;28;20018;-64
2021/12/25 01:52:02;;;;;;;15.48;11.18;;;8.30;99.90;;;;;;5013065;28;20034;-64
2021/12/25 01:54:28;;;;;;;14.52;11.05;;;8.20;99.90;;;;;;5011913;28;20032;-64
2021/12/25 01:56:53;;;;;;;16.45;11.65;;;8.20;99.90;;;;;;5012433;28;20446;-64
2021/12/25 01:59:19;;;;;;;14.60;10.23;;;8.20;99.90;;;;;;5010794;28;20026;-63
2021/12/25 02:01:45;;;;;;;16.65;11.73;;;8.20;99.90;;;;;;5012692;28;20021;-65
2021/12/25 02:04:11;;;;;;;16.02;12.30;;;8.10;99.90;;;;;;5011289;28;20460;-63
2021/12/25 02:06:37;;;;;;;16.00;10.63;;;8.00;99.90;;;;;;5011448;28;20052;-66
2021/12/25 02:09:03;;;;;;;12.63;9.82;;;8.00;99.90;;;;;;5012955;28;20017;-64
2021/12/25 02:11:29;;;;;;;14.93;11.07;;;8.10;99.90;;;;;;5011798;28;20371;-64
2021/12/25 02:13:55;;;;;;;16.88;12.52;;;8.10;99.90;;;;;;5011295;28;20149;-64
2021/12/25 02:16:25;;;;;;;17.73;11.20;;;8.00;99.90;;;;;;5011789;28;20058;-64
2021/12/25 02:19:34;;;;;;;17.15;11.30;;;8.10;99.90;;;;;;5011306;28;20371;-65
2021/12/25 02:21:42;;;;;;;12.32;10.02;;;8.10;99.90;;;;;;5011162;28;20034;-65
2021/12/25 02:24:11;;;;;;;11.93;9.80;;;8.10;99.90;;;;;;5013610;28;20030;-64
2021/12/25 02:26:40;;;;;;;15.48;11.57;;;8.10;99.90;;;;;;5015856;28;20100;-64
2021/12/25 02:29:06;;;;;;;14.45;10.15;;;8.10;99.90;;;;;;5016035;28;20073;-66
2021/12/25 02:31:34;;;;;;;13.68;9.65;;;8.10;99.90;;;;;;5014334;28;20101;-65
2021/12/25 02:33:59;;;;;;;14.48;10.00;;;8.10;99.90;;;;;;5014768;28;20075;-66
2021/12/25 02:36:25;;;;;;;14.10;10.13;;;8.10;99.90;;;;;;5015108;28;20069;-65
2021/12/25 02:38:51;;;;;;;13.60;10.35;;;8.10;99.90;;;;;;5015738;28;20053;-64
2021/12/25 02:41:17;;;;;;;15.02;10.50;;;8.10;99.90;;;;;;5015208;28;20026;-64
2021/12/25 02:43:45;;;;;;;14.05;10.13;;;8.10;99.90;;;;;;5015726;28;20064;-64
2021/12/25 02:46:12;;;;;;;13.77;10.73;;;8.10;99.90;;;;;;5014589;28;20084;-66
2021/12/25 02:48:40;;;;;;;14.38;10.95;;;8.10;99.90;;;;;;5014342;28;20022;-64
2021/12/25 02:51:07;;;;;;;14.80;10.55;;;8.00;99.90;;;;;;5017859;28;20025;-67
2021/12/25 02:53:33;;;;;;;14.63;11.73;;;8.00;99.90;;;;;;5017021;28;20116;-64
2021/12/25 02:55:59;;;;;;;14.23;10.90;;;8.00;99.90;;;;;;5015870;28;20022;-66
2021/12/25 02:58:25;;;;;;;16.10;10.25;;;8.10;99.90;;;;;;5013770;28;20021;-63
2021/12/25 03:00:53;;;;;;;15.18;11.02;;;8.10;99.90;;;;;;5014487;28;20099;-65
2021/12/25 03:03:19;;;;;;;14.48;11.02;;;8.00;99.90;;;;;;5015421;28;20049;-67
2021/12/25 03:05:45;;;;;;;16.63;12.68;;;8.10;99.90;;;;;;5015818;28;20029;-66
2021/12/25 03:08:15;;;;;;;16.10;11.00;;;8.10;99.90;;;;;;5016411;28;20453;-70
2021/12/25 03:10:41;;;;;;;14.68;10.77;;;8.10;99.90;;;;;;5014969;28;20026;-66
2021/12/25 03:15:45;;;;;;;15.85;11.13;;;8.10;99.90;;;;;;5015035;28;20026;-68
2021/12/25 03:18:16;;;;;;;12.75;9.80;;;8.20;99.90;;;;;;5015841;28;20460;-65
2021/12/25 03:20:45;;;;;;;13.18;10.35;;;8.20;99.90;;;;;;5014639;28;20021;-65
2021/12/25 03:23:16;;;;;;;14.57;11.10;;;8.20;99.90;;;;;;5015408;28;20018;-65
2021/12/25 03:25:43;;;;;;;13.90;10.57;;;8.30;99.90;;;;;;5013693;28;20076;-65
2021/12/25 03:28:09;;;;;;;15.70;10.88;;;8.20;99.90;;;;;;5014270;28;20030;-65
2021/12/25 03:30:39;;;;;;;14.77;11.15;;;8.20;99.90;;;;;;5014647;28;20042;-63
2021/12/25 03:33:05;;;;;;;15.35;11.00;;;8.20;99.90;;;;;;5015906;28;20049;-65
2021/12/25 03:35:33;;;;;;;16.40;10.80;;;8.20;99.90;;;;;;5013711;28;20048;-65
2021/12/25 03:37:59;;;;;;;16.50;11.23;;;8.20;99.90;;;;;;5015153;28;20033;-64
2021/12/25 03:40:24;;;;;;;14.93;10.55;;;8.20;99.90;;;;;;5015257;28;20018;-66
2021/12/25 03:42:50;;;;;;;11.95;9.65;;;8.10;99.90;;;;;;5015170;28;20479;-64
2021/12/25 03:45:16;;;;;;;13.32;9.40;;;8.20;99.90;;;;;;5014800;28;20365;-71
2021/12/25 03:47:42;;;;;;;11.45;9.77;;;8.20;99.90;;;;;;5014964;28;20406;-64
2021/12/25 03:58:13;;;;;;;11.82;9.52;;;8.10;99.90;;;;;;5014398;28;20048;-64
2021/12/25 04:00:41;;;;;;;11.77;9.70;;;8.10;99.90;;;;;;5014037;28;20057;-71
2021/12/25 04:03:10;;;;;;;12.00;9.40;;;8.00;99.90;;;;;;5013522;28;20030;-68
2021/12/25 04:05:39;;;;;;;11.32;9.23;;;8.00;99.90;;;;;;5012703;28;20448;-67
2021/12/25 04:08:10;;;;;;;12.63;9.38;;;7.90;99.90;;;;;;5013246;28;20084;-64
2021/12/25 04:10:39;;;;;;;10.45;8.80;;;7.80;99.90;;;;;;5013674;28;20176;-63
2021/12/25 04:13:09;;;;;;;11.38;8.98;;;7.80;99.90;;;;;;5014371;28;20033;-63
2021/12/25 04:15:35;;;;;;;12.45;9.13;;;7.70;99.90;;;;;;5013582;28;20535;-65
2021/12/25 04:18:02;;;;;;;14.57;8.55;;;7.70;99.90;;;;;;5012637;28;20123;-64
2021/12/25 04:20:29;;;;;;;12.57;8.25;;;7.60;99.90;;;;;;5013909;28;20112;-64
2021/12/25 04:23:11;;;;;;;12.35;7.78;;;7.50;99.90;;;;;;5014158;28;20034;-65
2021/12/25 04:25:37;;;;;;;19.70;6.78;;;7.60;99.90;;;;;;5013089;28;20026;-62
2021/12/25 04:28:33;;;;;;;10.60;6.72;;;7.50;99.90;;;;;;5013726;28;20041;-64
2021/12/25 05:03:58;;;;;;;7.70;4.82;;;6.90;99.90;;;;;;5013906;28;20152;-63
2021/12/25 05:06:24;;;;;;;7.28;5.35;;;6.90;99.90;;;;;;5013013;28;20056;-65
2021/12/25 05:08:51;;;;;;;6.97;4.72;;;6.90;99.90;;;;;;4996365;28;20022;-67
2021/12/25 05:11:17;;;;;;;7.22;5.40;;;6.90;99.90;;;;;;5013578;28;20017;-64
2021/12/25 05:13:45;;;;;;;7.72;5.72;;;6.80;99.90;;;;;;5011633;28;20205;-65
2021/12/25 05:16:11;;;;;;;7.03;4.90;;;6.80;99.90;;;;;;5011809;28;20112;-63
2021/12/25 05:18:39;;;;;;;7.18;5.68;;;6.80;99.90;;;;;;5012695;28;20057;-63
2021/12/25 05:21:07;;;;;;;10.43;5.90;;;6.70;99.90;;;;;;5013218;28;20097;-65
2021/12/25 05:23:32;;;;;;;9.18;6.15;;;6.70;99.90;;;;;;5012791;28;20025;-66
2021/12/25 05:25:58;;;;;;;7.32;5.28;;;6.70;99.90;;;;;;5011959;28;20026;-64
2021/12/25 05:28:26;;;;;;;9.52;6.53;;;6.60;99.90;;;;;;5011279;28;20466;-65
2021/12/25 05:30:55;;;;;;;7.68;6.05;;;6.60;99.90;;;;;;5012055;28;20474;-63
2021/12/25 05:33:21;;;;;;;8.85;7.30;;;6.50;99.90;;;;;;5012506;28;20491;-65
2021/12/25 05:35:47;;;;;;;7.22;5.97;;;6.40;99.90;;;;;;5012112;28;20097;-64
2021/12/25 05:38:14;;;;;;;8.93;6.40;;;6.40;99.90;;;;;;5011933;28;20038;-64
2021/12/25 05:40:45;;;;;;;7.50;5.90;;;6.40;99.90;;;;;;5012234;28;20024;-68
2021/12/25 05:43:11;;;;;;;7.57;5.57;;;6.40;99.90;;;;;;5011726;28;20026;-66
2021/12/25 05:45:37;;;;;;;7.97;6.68;;;6.30;99.90;;;;;;5012034;28;20030;-66
2021/12/25 05:48:03;;;;;;;8.30;6.18;;;6.40;99.90;;;;;;5011915;28;20092;-63
2021/12/25 05:50:29;;;;;;;8.23;6.30;;;6.30;99.90;;;;;;5012341;28;20022;-68
2021/12/25 05:52:56;;;;;;;7.75;6.10;;;6.30;99.90;;;;;;5011756;28;20044;-65
2021/12/25 05:55:23;;;;;;;6.78;5.85;;;6.10;99.90;;;;;;5011197;28;20026;-63
2021/12/25 05:57:49;;;;;;;5.65;4.55;;;6.10;99.90;;;;;;5010908;28;20033;-63
2021/12/25 06:00:15;;;;;;;7.07;5.25;;;6.10;99.90;;;;;;5015542;28;20021;-63
2021/12/25 06:02:41;;;;;;;5.95;5.00;;;5.90;99.90;;;;;;5015101;28;20100;-63
2021/12/25 06:05:07;;;;;;;5.68;4.63;;;5.70;99.90;;;;;;5017276;28;20018;-63
2021/12/25 06:07:32;;;;;;;6.05;5.10;;;5.70;99.90;;;;;;5015326;28;20518;-63
2021/12/25 06:09:59;;;;;;;5.65;4.45;;;5.80;99.90;;;;;;5015700;28;20033;-63
2021/12/25 06:12:25;;;;;;;5.70;4.78;;;5.80;99.90;;;;;;5015562;28;20144;-65
2021/12/25 06:14:53;;;;;;;5.40;4.28;;;5.80;99.90;;;;;;5016522;28;20099;-65
2021/12/25 06:17:19;;;;;;;5.85;4.70;;;5.90;99.90;;;;;;5017050;28;20052;-65
2021/12/25 06:19:45;;;;;;;5.82;4.57;;;5.90;99.90;;;;;;5015303;28;20099;-63
2021/12/25 06:22:10;;;;;;;4.35;3.85;;;5.70;99.90;;;;;;5015563;28;20482;-63
2021/12/25 06:24:36;;;;;;;5.47;4.28;;;5.80;99.90;;;;;;5014573;28;20045;-63
2021/12/25 06:27:02;;;;;;;7.72;4.63;;;5.80;99.90;;;;;;5016714;28;20116;-64
2021/12/25 06:29:27;;;;;;;4.97;4.25;;;5.80;99.90;;;;;;5015765;28;20399;-67
2021/12/25 06:31:53;;;;;;;5.25;4.13;;;5.70;99.90;;;;;;5016861;28;20030;-64
2021/12/25 06:34:21;;;;;;;4.47;3.45;;;5.60;99.90;;;;;;5016526;28;20025;-64
2021/12/25 06:36:47;;;;;;;6.07;4.75;;;5.60;99.90;;;;;;5015627;28;20030;-63
2021/12/25 06:39:15;;;;;;;4.95;4.20;;;5.60;99.90;;;;;;5016528;28;20412;-67
2021/12/25 06:41:44;;;;;;;4.40;4.00;;;5.60;99.90;;;;;;5015625;28;20089;-67
2021/12/25 06:44:10;;;;;;;4.97;4.25;;;5.60;99.90;;;;;;5014981;28;20026;-64
2021/12/25 06:46:36;;;;;;;4.43;3.70;;;5.50;99.90;;;;;;5015774;28;20438;-67
2021/12/25 06:49:02;;;;;;;4.85;3.97;;;5.50;99.90;;;;;;5016613;28;20079;-66
2021/12/25 06:51:27;;;;;;;4.90;4.10;;;5.40;99.90;;;;;;5017584;28;20050;-65
2021/12/25 06:53:53;;;;;;;4.18;3.75;;;5.50;99.90;;;;;;5016046;28;20021;-65
2021/12/25 06:56:20;;;;;;;3.75;3.30;;;5.40;99.90;;;;;;5016510;28;20456;-65
2021/12/25 06:58:45;;;;;;;5.18;4.07;;;5.30;99.90;;;;;;5015716;28;20083;-71
2021/12/25 07:01:11;;;;;;;4.97;3.58;;;5.40;99.90;;;;;;5015850;28;20018;-63
2021/12/25 07:03:36;;;;;;;4.35;3.55;;;5.40;99.90;;;;;;5015247;28;20029;-63
2021/12/25 07:06:02;;;;;;;6.45;3.80;;;5.30;99.90;;;;;;5015824;28;20033;-64
2021/12/25 07:08:28;;;;;;;5.32;3.20;;;5.20;99.90;;;;;;5014874;28;20466;-64
2021/12/25 07:10:54;;;;;;;4.65;3.28;;;5.30;99.90;;;;;;5013350;28;20030;-64
2021/12/25 07:13:20;;;;;;;5.20;3.78;;;5.40;99.90;;;;;;5015708;28;20034;-63
2021/12/25 07:15:47;;;;;;;4.38;3.53;;;5.30;99.90;;;;;;5015094;28;20175;-65
2021/12/25 07:18:14;;;;;;;3.97;3.35;;;5.20;99.90;;;;;;5015644;28;20034;-65
2021/12/25 07:20:39;;;;;;;4.57;3.58;;;5.30;99.90;;;;;;5013636;28;20026;-64
2021/12/25 07:23:05;;;;;;;3.95;3.53;;;5.20;99.90;;;;;;5014333;28;20025;-65
2021/12/25 07:25:31;;;;;;;4.20;3.35;;;5.30;99.90;;;;;;5014813;28;20025;-70
2021/12/25 07:27:57;;;;;;;5.22;3.47;;;5.20;99.90;;;;;;5015665;28;20060;-65
2021/12/25 07:30:22;;;;;;;4.03;3.63;;;5.30;99.90;;;;;;5013659;28;20485;-66
2021/12/25 07:32:48;;;;;;;4.60;3.60;;;5.40;99.90;;;;;;5014973;28;20026;-64
2021/12/25 07:35:14;;;;;;;4.55;3.80;;;5.30;99.90;;;;;;5015390;28;20022;-63
2021/12/25 07:37:40;;;;;;;3.90;3.20;;;5.40;99.90;;;;;;5013860;28;20083;-65
2021/12/25 07:40:09;;;;;;;6.40;4.13;;;5.20;99.90;;;;;;5015120;28;20525;-65
2021/12/25 07:42:35;;;;;;;4.25;3.65;;;5.10;99.90;;;;;;5012706;28;20125;-65
2021/12/25 07:45:06;;;;;;;4.85;4.35;;;5.20;99.90;;;;;;5015139;28;20460;-66
2021/12/25 07:47:34;;;;;;;4.93;4.15;;;5.10;99.90;;;;;;5014955;28;20034;-65
2021/12/25 07:50:00;;;;;;;4.28;3.88;;;5.10;99.90;;;;;;5014634;28;20113;-67
2021/12/25 07:52:27;;;;;;;5.30;3.88;;;5.00;99.90;;;;;;5014819;28;20072;-64
2021/12/25 07:54:54;;;;;;;5.07;4.00;;;5.10;99.90;;;;;;5014314;28;20056;-66
2021/12/25 07:57:19;;;;;;;5.25;3.63;;;5.10;99.90;;;;;;5014718;28;20077;-66
2021/12/25 07:59:45;;;;;;;8.32;3.70;;;5.10;99.90;;;;;;5014438;28;20025;-65
2021/12/25 08:02:11;;;;;;;4.78;3.92;;;5.10;99.90;;;;;;5014811;28;20499;-68
2021/12/25 08:04:36;;;;;;;4.95;3.65;;;5.00;99.90;;;;;;5014176;28;20104;-65
2021/12/25 08:07:02;;;;;;;5.50;4.30;;;5.20;99.90;;;;;;5014793;28;20068;-67
2021/12/25 08:09:29;;;;;;;5.22;3.80;;;5.00;99.90;;;;;;5013453;28;20029;-68
2021/12/25 08:12:00;;;;;;;5.00;4.25;;;5.00;99.90;;;;;;5012551;28;20490;-65
2021/12/25 08:14:27;;;;;;;4.28;3.80;;;5.00;99.90;;;;;;5014762;28;20451;-63
2021/12/25 08:16:53;;;;;;;4.43;3.47;;;4.90;99.90;;;;;;5012627;28;20053;-64
2021/12/25 08:19:20;;;;;;;4.85;4.35;;;4.80;99.90;;;;;;5015026;28;20482;-64
2021/12/25 08:21:46;;;;;;;4.70;3.83;;;4.90;99.90;;;;;;5012377;28;20030;-67
2021/12/25 08:24:11;;;;;;;3.17;2.88;;;4.90;99.90;;;;;;5013152;28;20336;-65
2021/12/25 08:26:37;;;;;;;4.65;3.65;;;5.00;99.90;;;;;;5014058;28;20463;-64
2021/12/25 08:29:03;;;;;;;4.63;3.40;;;4.80;99.90;;;;;;5014430;28;20045;-65
2021/12/25 08:31:28;;;;;;;4.68;3.50;;;4.70;99.90;;;;;;5012979;28;20018;-64
2021/12/25 08:33:54;;;;;;;3.63;3.28;;;4.60;99.90;;;;;;5012725;28;20190;-64
2021/12/25 08:36:20;;;;;;;3.92;3.47;;;4.80;99.90;;;;;;5012637;28;20057;-64
2021/12/25 08:38:45;;;;;;;4.00;3.20;;;4.80;99.90;;;;;;5013069;28;20021;-69
2021/12/25 08:41:11;;;;;;;5.05;3.10;;;4.80;99.90;;;;;;5013933;28;20026;-66
2021/12/25 08:43:45;;;;;;;4.80;3.50;;;4.70;99.90;;;;;;5014190;28;20030;-74
2021/12/25 08:46:16;;;;;;;6.53;3.90;;;4.60;99.90;;;;;;5015128;28;20152;-68
2021/12/25 08:48:42;;;;;;;4.50;3.70;;;4.50;99.90;;;;;;5012621;28;20344;-67
2021/12/25 08:51:08;;;;;;;5.35;3.90;;;4.60;99.90;;;;;;5012788;28;20176;-65
2021/12/25 08:53:34;;;;;;;7.22;3.75;;;4.50;99.90;;;;;;5012706;28;20071;-66
2021/12/25 08:56:00;;;;;;;6.60;4.15;;;4.70;99.90;;;;;;5013936;28;20376;-68
2021/12/25 08:58:26;;;;;;;5.75;4.05;;;4.40;99.90;;;;;;5013161;28;20469;-64
2021/12/25 09:00:56;;;;;;;4.30;3.78;;;4.40;99.90;;;;;;5012230;28;20348;-63
2021/12/25 09:03:25;;;;;;;6.03;4.07;;;4.40;99.90;;;;;;5013275;28;20024;-66
2021/12/25 09:05:54;;;;;;;4.72;4.22;;;4.30;99.90;;;;;;5013601;28;20456;-64
2021/12/25 09:08:19;;;;;;;5.30;4.07;;;4.30;99.90;;;;;;5012631;28;20029;-65
2021/12/25 09:10:45;;;;;;;5.50;4.32;;;4.40;99.90;;;;;;5013372;28;20026;-65
2021/12/25 09:13:11;;;;;;;6.55;4.63;;;4.20;99.90;;;;;;5013477;28;20030;-64
2021/12/25 09:15:37;;;;;;;5.63;3.65;;;4.30;99.90;;;;;;5013239;28;20018;-64
2021/12/25 09:18:03;;;;;;;5.15;3.97;;;4.30;99.90;;;;;;5013521;28;20038;-65
2021/12/25 09:20:28;;;;;;;5.82;4.57;;;4.30;99.90;;;;;;5013471;28;20018;-64
2021/12/25 09:22:54;;;;;;;4.80;3.60;;;4.20;99.90;;;;;;5011527;28;20485;-64
2021/12/25 09:25:20;;;;;;;6.15;3.50;;;4.30;99.90;;;;;;5012948;28;20026;-65
2021/12/25 09:27:46;;;;;;;6.18;3.63;;;4.30;99.90;;;;;;5011500;28;20054;-65
2021/12/25 09:30:12;;;;;;;5.80;3.92;;;4.30;99.90;;;;;;5011747;28;20095;-64
2021/12/25 09:32:38;;;;;;;4.13;3.47;;;4.30;99.90;;;;;;5012797;28;20065;-63
2021/12/25 09:35:04;;;;;;;4.47;3.53;;;4.30;99.90;;;;;;5011097;28;20033;-64
2021/12/25 09:37:30;;;;;;;5.05;3.42;;;4.20;99.90;;;;;;5013013;28;20460;-64
2021/12/25 09:39:56;;;;;;;4.97;3.40;;;4.20;99.90;;;;;;5011438;28;20022;-65
2021/12/25 09:42:24;;;;;;;5.32;3.58;;;4.20;99.90;;;;;;5012886;28;20572;-64
2021/12/25 09:44:51;;;;;;;8.35;3.65;;;4.30;99.90;;;;;;5011368;28;20029;-62
2021/12/25 09:47:17;;;;;;;4.28;3.28;;;4.20;99.90;;;;;;5011830;28;20029;-64
2021/12/25 09:49:43;;;;;;;5.78;3.30;;;4.30;99.90;;;;;;5011644;28;20029;-70
2021/12/25 09:52:09;;;;;;;4.55;3.22;;;4.20;99.90;;;;;;5014092;28;20366;-68
2021/12/25 09:54:34;;;;;;;4.18;3.05;;;4.20;99.90;;;;;;5013877;28;20025;-66
2021/12/25 09:57:00;;;;;;;6.38;3.70;;;4.10;99.90;;;;;;5014279;28;20038;-66
2021/12/25 09:59:26;;;;;;;4.60;2.88;;;4.20;99.90;;;;;;5012060;28;20520;-63
2021/12/25 10:01:54;;;;;;;4.40;3.30;;;4.10;99.90;;;;;;5012465;28;20061;-63
2021/12/25 10:04:33;;;;;;;4.30;3.50;;;4.10;99.90;;;;;;5011922;28;20029;-67
2021/12/25 10:07:19;;;;;;;3.15;2.85;;;4.30;99.90;;;;;;5012311;28;20026;-65
2021/12/25 10:09:58;;;;;;;3.72;2.90;;;4.30;99.90;;;;;;5012425;28;20026;-63
2021/12/25 10:12:41;;;;;;;4.00;3.33;;;4.20;99.90;;;;;;5011513;28;20121;-63
2021/12/25 10:15:11;;;;;;;6.85;3.20;;;4.00;99.90;;;;;;5012900;28;20052;-64
2021/12/25 10:17:54;;;;;;;7.72;3.63;;;4.00;99.90;;;;;;5011675;28;20026;-63
2021/12/25 10:20:26;;;;;;;5.13;3.17;;;3.90;99.90;;;;;;5011606;28;20022;-64
2021/12/25 10:22:58;;;;;;;5.22;3.22;;;3.90;99.90;;;;;;5012070;28;20026;-63
2021/12/25 10:25:32;;;;;;;4.03;2.88;;;4.00;99.90;;;;;;5011649;28;20032;-63
2021/12/25 10:28:00;;;;;;;7.53;3.70;;;3.80;99.90;;;;;;5011572;28;20029;-64
2021/12/25 10:30:27;;;;;;;4.10;3.35;;;3.80;99.90;;;;;;5009642;28;20038;-65
2021/12/25 10:32:53;;;;;;;4.75;3.20;;;3.90;99.90;;;;;;5010640;28;20380;-65
2021/12/25 10:35:22;;;;;;;4.88;3.50;;;4.00;99.90;;;;;;5011299;28;20018;-64
2021/12/25 10:37:50;;;;;;;15.55;4.72;;;4.10;99.90;;;;;;5011821;28;20116;-62
2021/12/25 10:40:36;;;;;;;9.07;4.43;;;4.50;99.90;;;;;;5010746;28;20071;-65
2021/12/25 10:43:03;;;;;;;3.92;3.17;;;4.40;99.90;;;;;;4990640;28;20038;-64
2021/12/25 10:45:31;;;;;;;3.38;2.80;;;4.30;99.90;;;;;;5000853;28;20026;-64
2021/12/25 10:48:07;;;;;;;6.28;3.17;;;4.10;99.90;;;;;;5007563;28;20027;-65
2021/12/25 10:50:41;;;;;;;3.33;2.92;;;3.90;99.90;;;;;;4993869;28;20117;-64
2021/12/25 10:53:26;;;;;;;4.00;2.47;;;3.70;99.90;;;;;;5007649;28;20033;-64
2021/12/25 10:55:52;;;;;;;4.40;2.72;;;3.50;99.90;;;;;;5013206;28;20348;-67
2021/12/25 10:58:24;;;;;;;4.72;3.40;;;3.60;99.90;;;;;;5027478;28;20507;-65
2021/12/25 11:00:56;;;;;;;2.75;2.35;;;3.70;99.90;;;;;;5013211;28;20460;-70
2021/12/25 11:03:30;;;;;;;10.18;4.03;;;3.80;99.90;;;;;;5014297;28;20037;-64
2021/12/25 11:06:13;;;;;;;3.63;2.58;;;3.70;99.90;;;;;;5013311;28;20025;-64
2021/12/25 11:08:39;;;;;;;5.20;3.10;;;3.70;99.90;;;;;;5014376;28;20110;-64
2021/12/25 11:11:06;;;;;;;4.97;2.65;;;3.50;99.90;;;;;;5012831;28;20037;-63
2021/12/25 11:13:39;;;;;;;5.18;2.75;;;3.30;99.90;;;;;;5015595;28;20045;-63
2021/12/25 11:16:11;;;;;;;2.90;2.15;;;3.20;99.90;;;;;;5013594;28;20052;-65
2021/12/25 11:19:17;;;;;;;4.00;2.80;;;3.20;99.90;;;;;;5011212;28;20030;-65
2021/12/25 11:21:46;;;;;;;3.78;2.60;;;3.10;99.90;;;;;;4966746;28;20045;-66
2021/12/25 11:24:20;;;;;;;5.18;2.63;;;3.10;99.90;;;;;;4995727;28;20031;-64
2021/12/25 11:26:58;;;;;;;6.20;3.28;;;3.20;99.90;;;;;;5013201;28;20028;-67
2021/12/25 11:29:26;;;;;;;3.55;2.72;;;3.30;99.90;;;;;;5005905;28;20049;-66
2021/12/25 11:31:54;;;;;;;3.17;2.60;;;3.40;99.90;;;;;;5013211;28;20057;-65
2021/12/25 11:34:20;;;;;;;3.35;2.72;;;3.40;99.90;;;;;;5013919;28;20073;-65
2021/12/25 11:36:50;;;;;;;3.25;2.25;;;3.40;99.90;;;;;;5014385;28;20069;-66
2021/12/25 11:39:17;;;;;;;5.85;2.25;;;3.40;99.90;;;;;;5012518;28;20056;-64
2021/12/25 11:41:44;;;;;;;3.20;2.58;;;3.40;99.90;;;;;;5010785;28;20030;-65
2021/12/25 11:44:38;;;;;;;7.28;3.90;;;3.30;99.90;;;;;;5014189;28;20030;-67
2021/12/25 11:47:06;;;;;;;3.42;2.75;;;3.20;99.90;;;;;;5016016;28;20022;-70
2021/12/25 11:49:32;;;;;;;3.00;2.60;;;3.20;99.90;;;;;;5014765;28;20030;-67
2021/12/25 11:52:15;;;;;;;5.95;3.55;;;3.10;99.90;;;;;;5014642;28;20028;-66
2021/12/25 12:00:45;;;;;;;3.80;2.92;;;3.10;99.90;;;;;;5022514;28;20033;-65
2021/12/25 12:03:38;;;;;;;5.00;2.95;;;3.00;99.90;;;;;;5012318;28;20088;-64
2021/12/25 12:06:05;;;;;;;4.47;2.83;;;3.00;99.90;;;;;;5007269;28;20030;-63
2021/12/25 12:08:55;;;;;;;3.60;3.17;;;3.20;99.90;;;;;;5010756;28;20141;-63
2021/12/25 12:11:29;;;;;;;6.85;2.38;;;3.20;99.90;;;;;;5010912;28;20030;-65
2021/12/25 12:14:27;;;;;;;5.57;3.10;;;3.30;99.90;;;;;;4994190;28;20034;-65
2021/12/25 12:17:03;;;;;;;6.03;3.28;;;3.20;99.90;;;;;;4999367;28;20037;-63
2021/12/25 12:19:38;;;;;;;3.40;3.10;;;3.20;99.90;;;;;;5012846;28;20022;-63
2021/12/25 12:22:19;;;;;;;4.72;3.65;;;3.20;99.90;;;;;;5013602;28;20057;-65
2021/12/25 12:27:35;;;;;;;2.78;2.58;;;3.20;99.90;;;;;;5012936;28;20037;-65
2021/12/25 12:30:04;;;;;;;3.67;2.63;;;3.20;99.90;;;;;;5012561;28;20048;-64
2021/12/25 12:32:33;;;;;;;4.13;2.90;;;3.30;99.90;;;;;;5014118;28;20109;-64
2021/12/25 12:34:59;;;;;;;5.47;2.63;;;3.20;99.90;;;;;;5012438;28;20028;-64
2021/12/25 12:37:26;;;;;;;2.92;2.50;;;3.10;99.90;;;;;;5011918;28;20125;-64
2021/12/25 12:40:04;;;;;;;3.63;2.90;;;3.10;99.90;;;;;;5013580;28;20080;-66
2021/12/25 12:42:43;;;;;;;4.35;2.97;;;3.00;99.90;;;;;;5009155;28;20026;-65
2021/12/25 12:45:33;;;;;;;3.72;2.97;;;2.90;99.90;;;;;;5007142;28;20543;-66
2021/12/25 12:48:20;;;;;;;4.53;2.60;;;2.80;99.90;;;;;;5010010;28;20032;-65
2021/12/25 12:50:52;;;;;;;6.20;3.40;;;2.80;99.90;;;;;;5010316;28;20030;-61
2021/12/25 12:53:19;;;;;;;;;;;3.00;99.90;;;;;;5010098;28;20085;-71
2021/12/25 12:55:48;;;;;;;3.03;2.70;;;4.00;99.90;;;;;;5011393;28;20330;-63
2021/12/25 12:58:21;;;;;;;3.15;2.42;;;4.60;99.90;;;;;;5012913;28;20037;-65
2021/12/25 13:00:48;;;;;;;3.25;2.63;;;4.70;99.90;;;;;;5014852;28;20034;-65
2021/12/25 13:03:15;;;;;;;3.47;2.80;;;4.00;99.90;;;;;;5014369;28;20494;-65
2021/12/25 13:05:48;;;;;;;3.08;2.33;;;3.60;99.90;;;;;;5011175;28;20476;-65
2021/12/25 13:08:22;;;;;;;3.65;3.08;;;3.60;99.90;;;;;;5012418;28;20036;-66
2021/12/25 13:10:52;;;;;;;3.47;2.88;;;3.40;99.90;;;;;;5010887;28;20030;-65
2021/12/25 13:13:19;;;;;;;3.88;2.70;;;3.30;99.90;;;;;;5011914;28;20475;-67
2021/12/25 13:15:50;;;;;;;6.15;3.90;;;3.40;99.90;;;;;;5012129;28;20120;-64
2021/12/25 13:18:24;;;;;;;4.68;3.53;;;3.20;99.90;;;;;;5009622;28;20472;-63
2021/12/25 13:20:52;;;;;;;3.50;3.05;;;3.20;99.90;;;;;;5015197;28;20045;-65
2021/12/25 13:23:25;;;;;;;3.08;2.55;;;3.10;99.90;;;;;;5013464;28;20052;-65
2021/12/25 13:25:56;;;;;;;3.60;2.70;;;3.00;99.90;;;;;;5028766;28;20083;-66
2021/12/25 13:28:24;;;;;;;3.90;2.75;;;3.00;99.90;;;;;;5013825;28;20103;-68
2021/12/25 13:30:54;;;;;;;4.95;3.08;;;3.10;99.90;;;;;;5012362;28;20022;-63
2021/12/25 13:33:23;;;;;;;4.25;3.25;;;3.00;99.90;;;;;;5011017;28;20026;-69
2021/12/25 13:36:08;;;;;;;3.75;2.67;;;3.00;99.90;;;;;;5012306;28;20113;-63
2021/12/25 13:38:47;;;;;;;3.00;2.70;;;2.90;99.90;;;;;;5012277;28;20148;-64
2021/12/25 13:41:26;;;;;;;3.28;2.42;;;2.90;99.90;;;;;;5012496;28;20497;-64
2021/12/25 13:44:02;;;;;;;4.43;3.10;;;2.90;99.90;;;;;;5011692;28;20029;-64
2021/12/25 13:46:37;;;;;;;5.10;3.38;;;2.80;99.90;;;;;;5007897;28;20471;-65
2021/12/25 13:49:02;;;;;;;3.40;2.65;;;2.80;99.90;;;;;;5009325;28;20235;-64
2021/12/25 13:51:28;;;;;;;4.82;3.13;;;2.80;99.90;;;;;;5009418;28;20491;-64
2021/12/25 13:53:54;;;;;;;4.88;2.75;;;2.80;99.90;;;;;;5011312;28;20022;-65
2021/12/25 13:56:20;;;;;;;4.15;2.65;;;2.80;99.90;;;;;;5011078;28;20486;-65
2021/12/25 13:58:45;;;;;;;4.13;3.35;;;2.90;99.90;;;;;;5011983;28;20077;-66
2021/12/25 14:01:15;;;;;;;3.42;2.83;;;2.90;99.90;;;;;;5011537;28;20383;-65
2021/12/25 14:03:42;;;;;;;4.47;3.28;;;2.90;99.90;;;;;;5011723;28;20041;-64
2021/12/25 14:06:08;;;;;;;3.20;2.70;;;3.00;99.90;;;;;;5012455;28;20081;-62
2021/12/25 14:08:34;;;;;;;4.63;2.92;;;2.90;99.90;;;;;;5013696;28;20062;-63
2021/12/25 14:11:01;;;;;;;3.42;2.50;;;2.90;99.90;;;;;;5011259;28;20037;-66
2021/12/25 14:13:31;;;;;;;4.72;2.85;;;3.00;99.90;;;;;;5007814;28;20116;-65
2021/12/25 14:15:58;;;;;;;4.95;3.13;;;3.10;99.90;;;;;;5014236;28;20026;-66
2021/12/25 14:18:35;;;;;;;4.22;2.97;;;2.90;99.90;;;;;;5013755;28;20117;-64
2021/12/25 14:21:36;;;;;;;4.88;3.05;;;2.80;99.90;;;;;;5014735;28;20036;-66